createdAt,value
2017-11-29T00:01:29.127Z,5.70
2017-11-29T00:03:55.402Z,5.70
2017-11-29T00:06:21.636Z,5.80
2017-11-29T00:08:47.911Z,5.60
2017-11-29T00:11:14.191Z,5.60
2017-11-29T00:13:40.443Z,5.60
2017-11-29T00:16:07.057Z,5.70
2017-11-29T00:18:33.287Z,5.70
2017-11-29T00:20:59.530Z,5.60
2017-11-29T00:23:26.151Z,5.70
2017-11-29T00:25:52.774Z,5.70
2017-11-29T00:28:19.006Z,5.60
2017-11-29T00:30:45.227Z,5.50
2017-11-29T00:33:11.476Z,5.60
2017-11-29T00:35:37.736Z,5.50
2017-11-29T00:38:03.980Z,5.50
2017-11-29T00:40:30.251Z,5.60
2017-11-29T00:42:56.501Z,5.70
2017-11-29T00:45:23.129Z,5.70
2017-11-29T00:47:49.339Z,5.70
2017-11-29T00:50:15.593Z,5.70
2017-11-29T00:52:41.830Z,5.70
2017-11-29T00:55:08.099Z,5.70
2017-11-29T00:57:34.340Z,5.80
2017-11-29T01:00:00.624Z,5.80
2017-11-29T01:02:26.922Z,5.80
2017-11-29T01:04:53.211Z,5.80
2017-11-29T01:07:19.441Z,5.90
2017-11-29T01:09:45.658Z,5.80
2017-11-29T01:12:11.914Z,5.70
2017-11-29T01:14:38.155Z,5.70
2017-11-29T01:17:04.396Z,5.90
2017-11-29T01:19:30.596Z,5.90
2017-11-29T01:21:56.841Z,5.80
2017-11-29T01:24:23.068Z,5.60
2017-11-29T01:26:49.300Z,5.70
2017-11-29T01:29:15.506Z,5.80
2017-11-29T01:31:41.755Z,5.80
2017-11-29T01:34:07.988Z,5.80
2017-11-29T01:36:34.204Z,6.00
2017-11-29T01:39:00.504Z,6.00
2017-11-29T01:41:26.735Z,5.90
2017-11-29T01:43:52.997Z,5.90
2017-11-29T01:46:19.255Z,5.80
2017-11-29T01:48:45.533Z,5.90
2017-11-29T01:51:11.797Z,6.00
2017-11-29T01:53:38.415Z,5.80
2017-11-29T01:56:04.624Z,5.80
2017-11-29T01:58:30.870Z,5.90
2017-11-29T02:00:57.127Z,5.80
2017-11-29T02:03:23.728Z,5.80
2017-11-29T02:05:50.324Z,5.80
2017-11-29T02:08:16.568Z,5.80
2017-11-29T02:10:42.804Z,5.90
2017-11-29T02:13:09.052Z,5.90
2017-11-29T02:15:35.269Z,5.80
2017-11-29T02:18:01.505Z,5.80
2017-11-29T02:20:27.755Z,5.80
2017-11-29T02:22:54.859Z,5.60
2017-11-29T02:25:21.105Z,5.60
2017-11-29T02:27:47.374Z,5.60
2017-11-29T02:30:13.643Z,5.50
2017-11-29T02:32:39.897Z,5.50
2017-11-29T02:35:06.133Z,5.60
2017-11-29T02:37:32.403Z,5.60
2017-11-29T02:40:10.766Z,5.60
2017-11-29T02:42:38.869Z,5.50
2017-11-29T02:45:05.122Z,5.40
2017-11-29T02:47:31.424Z,5.30
2017-11-29T02:49:58.064Z,5.20
2017-11-29T02:52:24.705Z,5.40
2017-11-29T02:54:51.332Z,5.50
2017-11-29T02:57:17.584Z,5.50
2017-11-29T02:59:44.202Z,5.50
2017-11-29T03:02:10.834Z,5.50
2017-11-29T03:04:37.043Z,5.50
2017-11-29T03:07:03.330Z,5.40
2017-11-29T03:09:29.521Z,5.30
2017-11-29T03:11:55.750Z,5.30
2017-11-29T03:14:22.335Z,5.10
2017-11-29T03:16:48.558Z,5.10
2017-11-29T03:19:14.883Z,5.00
2017-11-29T03:21:41.127Z,5.10
2017-11-29T03:24:07.345Z,5.10
2017-11-29T03:26:33.610Z,5.20
2017-11-29T03:28:59.826Z,5.30
2017-11-29T03:31:26.071Z,5.30
2017-11-29T03:33:52.290Z,5.40
2017-11-29T03:36:18.536Z,5.50
2017-11-29T03:38:44.750Z,5.50
2017-11-29T03:41:11.520Z,5.60
2017-11-29T03:43:38.095Z,5.70
2017-11-29T03:46:04.327Z,5.70
2017-11-29T03:48:30.571Z,5.60
2017-11-29T03:50:56.830Z,5.70
2017-11-29T03:53:23.431Z,5.50
2017-11-29T03:55:49.637Z,5.50
2017-11-29T03:58:15.850Z,5.50
2017-11-29T04:00:42.118Z,5.40
2017-11-29T04:03:08.350Z,5.50
2017-11-29T04:05:34.602Z,5.60
2017-11-29T04:08:00.884Z,5.50
2017-11-29T04:10:27.147Z,5.60
2017-11-29T04:12:53.375Z,5.70
2017-11-29T04:15:19.653Z,5.70
2017-11-29T04:17:45.921Z,5.80
2017-11-29T04:20:12.175Z,5.80
2017-11-29T04:22:38.447Z,5.80
2017-11-29T04:25:04.724Z,5.80
2017-11-29T04:27:30.986Z,5.60
2017-11-29T04:29:57.589Z,5.80
2017-11-29T04:32:23.833Z,5.80
2017-11-29T04:34:50.460Z,5.60
2017-11-29T04:37:16.741Z,5.70
2017-11-29T04:39:42.971Z,5.70
2017-11-29T04:42:09.217Z,5.80
2017-11-29T04:44:35.439Z,5.80
2017-11-29T04:47:01.666Z,5.70
2017-11-29T04:49:27.929Z,5.60
2017-11-29T04:51:54.225Z,5.60
2017-11-29T04:54:20.513Z,5.50
2017-11-29T04:56:47.133Z,5.40
2017-11-29T04:59:13.408Z,5.40
2017-11-29T05:01:39.666Z,5.30
2017-11-29T05:04:05.908Z,5.30
2017-11-29T05:06:32.228Z,5.30
2017-11-29T05:08:58.530Z,5.20
2017-11-29T05:11:24.804Z,5.30
2017-11-29T05:13:51.106Z,5.20
2017-11-29T05:16:17.416Z,5.40
2017-11-29T05:18:43.677Z,5.40
2017-11-29T05:21:09.968Z,5.50
2017-11-29T05:23:36.231Z,5.40
2017-11-29T05:26:02.533Z,5.40
2017-11-29T05:28:28.798Z,5.40
2017-11-29T05:30:55.060Z,5.40
2017-11-29T05:33:21.747Z,5.30
2017-11-29T05:35:48.011Z,5.30
2017-11-29T05:38:14.288Z,5.30
2017-11-29T05:40:40.574Z,5.30
2017-11-29T05:43:07.224Z,5.20
2017-11-29T05:45:33.873Z,5.30
2017-11-29T05:48:00.154Z,5.30
2017-11-29T05:50:26.412Z,5.40
2017-11-29T05:52:52.658Z,5.30
2017-11-29T05:55:18.921Z,5.40
2017-11-29T05:57:45.198Z,5.50
2017-11-29T06:00:11.872Z,5.40
2017-11-29T06:02:38.130Z,5.40
2017-11-29T06:05:04.386Z,5.40
2017-11-29T06:07:30.698Z,5.40
2017-11-29T06:09:57.022Z,5.50
2017-11-29T06:12:23.362Z,5.60
2017-11-29T06:14:49.606Z,5.70
2017-11-29T06:17:16.263Z,5.70
2017-11-29T06:19:42.922Z,5.80
2017-11-29T06:22:09.203Z,5.80
2017-11-29T06:24:35.465Z,5.80
2017-11-29T06:27:01.737Z,5.80
2017-11-29T06:29:27.998Z,5.80
2017-11-29T06:31:54.605Z,5.90
2017-11-29T06:34:20.902Z,5.90
2017-11-29T06:36:47.129Z,5.90
2017-11-29T06:39:13.414Z,5.80
2017-11-29T06:41:39.666Z,5.90
2017-11-29T06:44:05.897Z,5.90
2017-11-29T06:46:32.142Z,6.00
2017-11-29T06:48:58.401Z,6.20
2017-11-29T06:51:24.620Z,6.20
2017-11-29T06:53:50.933Z,6.10
2017-11-29T06:56:17.164Z,6.10
2017-11-29T06:58:43.470Z,6.10
2017-11-29T07:01:09.739Z,6.10
2017-11-29T07:03:35.981Z,6.00
2017-11-29T07:06:02.310Z,6.00
2017-11-29T07:08:28.612Z,6.00
2017-11-29T07:10:54.851Z,6.10
2017-11-29T07:13:21.123Z,6.10
2017-11-29T07:15:47.721Z,6.20
2017-11-29T07:18:13.961Z,6.20
2017-11-29T07:20:40.178Z,6.20
2017-11-29T07:23:06.468Z,6.20
2017-11-29T07:25:32.747Z,6.20
2017-11-29T07:27:59.010Z,6.20
2017-11-29T07:30:25.287Z,6.20
2017-11-29T07:32:51.525Z,6.20
2017-11-29T07:35:17.796Z,6.30
2017-11-29T07:37:44.046Z,6.30
2017-11-29T07:40:10.288Z,6.30
2017-11-29T07:42:36.510Z,6.30
2017-11-29T07:45:02.754Z,6.30
2017-11-29T07:47:29.024Z,6.40
2017-11-29T07:49:55.227Z,6.50
2017-11-29T07:52:21.495Z,6.50
2017-11-29T07:54:47.727Z,6.40
2017-11-29T07:57:13.953Z,6.40
2017-11-29T07:59:40.852Z,6.60
2017-11-29T08:02:07.127Z,6.50
2017-11-29T08:04:33.718Z,6.60
2017-11-29T08:06:59.960Z,6.60
2017-11-29T08:09:26.236Z,6.70
2017-11-29T08:11:52.532Z,6.70
2017-11-29T08:14:18.771Z,6.60
2017-11-29T08:16:45.363Z,6.30
2017-11-29T08:19:11.632Z,6.30
2017-11-29T08:21:38.296Z,6.00
2017-11-29T08:24:04.569Z,6.00
2017-11-29T08:26:30.848Z,5.90
2017-11-29T08:28:57.487Z,5.70
2017-11-29T08:31:23.774Z,5.70
2017-11-29T08:33:50.063Z,5.70
2017-11-29T08:36:16.318Z,5.60
2017-11-29T08:38:42.571Z,5.60
2017-11-29T08:41:08.837Z,5.70
2017-11-29T08:43:35.124Z,5.70
2017-11-29T08:46:01.394Z,5.80
2017-11-29T08:48:27.696Z,5.90
2017-11-29T08:50:54.353Z,6.00
2017-11-29T08:53:20.998Z,6.00
2017-11-29T08:55:47.270Z,6.10
2017-11-29T08:58:13.578Z,6.20
2017-11-29T09:00:39.841Z,6.30
2017-11-29T09:03:06.123Z,6.40
2017-11-29T09:05:32.356Z,6.60
2017-11-29T09:07:58.688Z,6.90
2017-11-29T09:10:24.950Z,7.00
2017-11-29T09:12:51.219Z,7.10
2017-11-29T09:15:17.847Z,7.40
2017-11-29T09:17:44.476Z,7.40
2017-11-29T09:20:10.744Z,7.40
2017-11-29T09:22:37.024Z,7.10
2017-11-29T09:25:03.296Z,6.90
2017-11-29T09:27:29.587Z,7.00
2017-11-29T09:29:55.842Z,7.10
2017-11-29T09:32:22.479Z,6.60
2017-11-29T09:34:49.116Z,6.70
2017-11-29T09:37:15.749Z,6.90
2017-11-29T09:39:42.385Z,7.00
2017-11-29T09:42:09.022Z,7.10
2017-11-29T09:44:35.671Z,7.30
2017-11-29T09:47:01.997Z,7.30
2017-11-29T09:49:28.298Z,7.30
2017-11-29T09:51:54.554Z,7.50
2017-11-29T09:54:21.231Z,7.20
2017-11-29T09:56:47.580Z,7.20
2017-11-29T09:59:13.866Z,7.10
2017-11-29T10:01:40.091Z,6.80
2017-11-29T10:04:06.427Z,6.60
2017-11-29T10:06:32.702Z,6.40
2017-11-29T10:08:59.012Z,6.40
2017-11-29T10:11:25.327Z,6.40
2017-11-29T10:13:51.609Z,6.40
2017-11-29T10:16:17.874Z,6.50
2017-11-29T10:18:44.131Z,6.50
2017-11-29T10:21:10.464Z,6.60
2017-11-29T10:23:36.741Z,7.10
2017-11-29T10:26:03.361Z,7.70
2017-11-29T10:28:29.619Z,7.70
2017-11-29T10:30:55.886Z,8.00
2017-11-29T10:33:22.160Z,8.90
2017-11-29T10:35:48.438Z,9.90
2017-11-29T10:38:14.732Z,10.60
2017-11-29T10:40:41.007Z,10.60
2017-11-29T10:43:07.260Z,10.60
2017-11-29T10:45:33.542Z,10.50
2017-11-29T10:47:59.807Z,9.90
2017-11-29T10:50:26.081Z,9.40
2017-11-29T10:52:52.319Z,9.60
2017-11-29T10:55:18.622Z,9.80
2017-11-29T10:57:44.911Z,9.90
2017-11-29T11:00:11.212Z,10.80
2017-11-29T11:02:37.490Z,11.60
2017-11-29T11:05:03.756Z,11.60
2017-11-29T11:07:30.028Z,11.10
2017-11-29T11:09:56.286Z,10.50
2017-11-29T11:12:22.925Z,9.30
2017-11-29T11:14:49.185Z,9.30
2017-11-29T11:17:15.458Z,8.80
2017-11-29T11:19:41.756Z,8.50
2017-11-29T11:22:08.056Z,8.40
2017-11-29T11:24:34.363Z,8.30
2017-11-29T11:27:00.666Z,8.60
2017-11-29T11:29:26.989Z,8.50
2017-11-29T11:31:53.314Z,8.30
2017-11-29T11:34:19.605Z,8.10
2017-11-29T11:36:46.275Z,8.80
2017-11-29T11:39:12.553Z,8.80
2017-11-29T11:41:38.895Z,9.20
2017-11-29T11:44:06.624Z,9.80
2017-11-29T11:46:32.942Z,9.80
2017-11-29T11:48:59.189Z,10.00
2017-11-29T11:51:25.467Z,9.90
2017-11-29T11:53:51.761Z,9.70
2017-11-29T11:56:18.409Z,10.20
2017-11-29T11:58:44.687Z,10.20
2017-11-29T12:01:11.045Z,10.70
2017-11-29T12:03:37.337Z,11.00
2017-11-29T12:06:03.602Z,11.00
2017-11-29T12:08:29.916Z,11.10
2017-11-29T12:10:56.222Z,11.20
2017-11-29T12:13:22.482Z,11.20
2017-11-29T12:15:48.798Z,11.40
2017-11-29T12:18:15.134Z,11.30
2017-11-29T12:20:41.418Z,11.80
2017-11-29T12:23:08.041Z,12.10
2017-11-29T12:25:34.345Z,12.10
2017-11-29T12:28:00.650Z,12.00
2017-11-29T12:30:26.917Z,11.60
2017-11-29T12:32:53.201Z,11.30
2017-11-29T12:35:19.506Z,11.30
2017-11-29T12:37:45.829Z,11.30
2017-11-29T12:40:12.466Z,10.90
2017-11-29T12:42:39.289Z,10.40
2017-11-29T12:45:05.961Z,10.10
2017-11-29T12:47:36.174Z,10.10
2017-11-29T12:50:14.695Z,9.80
2017-11-29T12:52:41.038Z,9.30
2017-11-29T12:55:08.143Z,8.80
2017-11-29T12:57:34.403Z,8.70
2017-11-29T13:00:01.066Z,8.40
2017-11-29T13:02:27.319Z,8.40
2017-11-29T13:04:53.591Z,8.50
2017-11-29T13:07:20.201Z,7.80
2017-11-29T13:09:46.574Z,7.80
2017-11-29T13:12:12.813Z,7.60
2017-11-29T13:14:39.071Z,7.40
2017-11-29T13:17:05.344Z,7.40
2017-11-29T13:19:31.972Z,7.50
2017-11-29T13:21:58.631Z,7.50
2017-11-29T13:24:24.901Z,7.50
2017-11-29T13:26:51.271Z,7.80
2017-11-29T13:29:18.074Z,7.80
2017-11-29T13:31:44.382Z,7.80
2017-11-29T13:34:10.653Z,7.50
2017-11-29T13:36:37.028Z,7.40
2017-11-29T13:39:03.294Z,7.50
2017-11-29T13:41:29.570Z,7.50
2017-11-29T13:43:55.906Z,7.50
2017-11-29T13:46:22.598Z,7.40
2017-11-29T13:48:48.888Z,7.40
2017-11-29T13:51:15.211Z,7.30
2017-11-29T13:53:41.493Z,7.40
2017-11-29T13:56:07.766Z,7.40
2017-11-29T13:58:34.058Z,7.30
2017-11-29T14:01:00.353Z,7.40
2017-11-29T14:03:26.607Z,7.50
2017-11-29T14:05:52.914Z,7.50
2017-11-29T14:08:19.219Z,7.40
2017-11-29T14:10:45.493Z,7.40
2017-11-29T14:13:11.734Z,7.50
2017-11-29T14:15:37.998Z,7.40
2017-11-29T14:18:04.228Z,7.20
2017-11-29T14:20:30.469Z,7.30
2017-11-29T14:22:56.710Z,7.30
2017-11-29T14:25:22.967Z,7.40
2017-11-29T14:27:50.104Z,7.50
2017-11-29T14:30:16.343Z,7.40
2017-11-29T14:32:42.588Z,7.30
2017-11-29T14:35:08.856Z,7.30
2017-11-29T14:37:35.127Z,7.40
2017-11-29T14:40:01.379Z,7.40
2017-11-29T14:42:27.705Z,7.40
2017-11-29T14:44:54.252Z,7.40
2017-11-29T14:47:20.885Z,7.30
2017-11-29T14:49:47.500Z,7.40
2017-11-29T14:52:13.758Z,7.40
2017-11-29T14:54:40.350Z,7.30
2017-11-29T14:57:07.059Z,7.40
2017-11-29T14:59:33.376Z,7.30
2017-11-29T15:01:59.602Z,7.30
2017-11-29T15:04:25.825Z,7.30
2017-11-29T15:06:52.128Z,7.20
2017-11-29T15:09:18.767Z,7.20
2017-11-29T15:11:45.007Z,7.30
2017-11-29T15:14:11.268Z,7.30
2017-11-29T15:16:37.535Z,7.40
2017-11-29T15:19:03.772Z,7.40
2017-11-29T15:21:29.981Z,7.40
2017-11-29T15:23:56.231Z,7.20
2017-11-29T15:26:22.469Z,7.20
2017-11-29T15:28:48.739Z,7.20
2017-11-29T15:31:15.006Z,7.20
2017-11-29T15:33:41.286Z,7.10
2017-11-29T15:36:07.560Z,7.10
2017-11-29T15:38:33.835Z,7.10
2017-11-29T15:41:00.157Z,7.00
2017-11-29T15:43:26.795Z,7.00
2017-11-29T15:45:53.420Z,7.00
2017-11-29T15:48:19.762Z,7.00
2017-11-29T15:50:46.055Z,6.90
2017-11-29T15:53:12.330Z,6.80
2017-11-29T15:55:39.018Z,6.70
2017-11-29T15:58:05.354Z,6.70
2017-11-29T16:00:31.660Z,6.80
2017-11-29T16:02:57.944Z,6.70
2017-11-29T16:05:24.222Z,6.70
2017-11-29T16:07:50.566Z,6.70
2017-11-29T16:10:16.892Z,6.70
2017-11-29T16:12:43.297Z,6.80
2017-11-29T16:15:10.602Z,6.70
2017-11-29T16:17:36.957Z,6.70
2017-11-29T16:20:03.298Z,6.70
2017-11-29T16:22:29.924Z,6.50
2017-11-29T16:24:56.618Z,6.60
2017-11-29T16:27:22.925Z,6.60
2017-11-29T16:29:49.247Z,6.60
2017-11-29T16:32:15.528Z,6.50
2017-11-29T16:34:41.781Z,6.60
2017-11-29T16:37:08.437Z,6.70
2017-11-29T16:39:35.212Z,6.70
2017-11-29T16:42:01.484Z,6.70
2017-11-29T16:44:27.810Z,6.60
2017-11-29T16:46:54.063Z,6.60
2017-11-29T16:49:20.312Z,6.50
2017-11-29T16:51:46.555Z,6.40
2017-11-29T16:54:12.805Z,6.20
2017-11-29T16:56:39.105Z,6.20
2017-11-29T16:59:05.348Z,6.30
2017-11-29T17:01:31.611Z,6.30
2017-11-29T17:03:57.922Z,6.30
2017-11-29T17:06:24.166Z,6.30
2017-11-29T17:08:50.521Z,6.30
2017-11-29T17:11:16.882Z,6.40
2017-11-29T17:13:43.216Z,6.40
2017-11-29T17:16:09.507Z,6.30
2017-11-29T17:18:36.201Z,6.20
2017-11-29T17:21:02.594Z,6.20
2017-11-29T17:23:29.533Z,6.10
2017-11-29T17:25:55.804Z,6.00
2017-11-29T17:28:22.092Z,6.10
2017-11-29T17:30:48.366Z,5.80
2017-11-29T17:33:15.277Z,5.70
2017-11-29T17:35:41.578Z,5.80
2017-11-29T17:38:08.265Z,5.40
2017-11-29T17:40:34.896Z,5.40
2017-11-29T17:43:01.264Z,5.30
2017-11-29T17:45:27.525Z,5.20
2017-11-29T17:47:53.804Z,5.20
2017-11-29T17:50:20.063Z,5.20
2017-11-29T17:52:46.607Z,5.40
2017-11-29T17:55:13.279Z,5.40
2017-11-29T17:57:39.580Z,5.50
2017-11-29T18:00:06.293Z,5.50
2017-11-29T18:02:32.567Z,5.50
2017-11-29T18:04:58.865Z,5.60
2017-11-29T18:07:26.015Z,5.70
2017-11-29T18:09:52.308Z,5.70
2017-11-29T18:12:18.619Z,5.70
2017-11-29T18:14:44.916Z,5.70
2017-11-29T18:17:11.706Z,5.70
2017-11-29T18:19:38.015Z,5.70
2017-11-29T18:22:04.363Z,5.60
2017-11-29T18:24:30.733Z,5.50
2017-11-29T18:26:56.969Z,5.50
2017-11-29T18:29:23.327Z,5.50
2017-11-29T18:31:49.878Z,5.50
2017-11-29T18:34:16.151Z,5.50
2017-11-29T18:36:42.443Z,5.50
2017-11-29T18:39:08.784Z,5.50
2017-11-29T18:41:35.059Z,5.40
2017-11-29T18:44:01.751Z,5.40
2017-11-29T18:46:28.030Z,5.40
2017-11-29T18:48:54.352Z,5.40
2017-11-29T18:51:21.064Z,5.30
2017-11-29T18:53:47.378Z,5.30
2017-11-29T18:56:13.716Z,5.20
2017-11-29T18:58:39.952Z,5.20
2017-11-29T19:01:06.266Z,5.10
2017-11-29T19:03:32.542Z,5.20
2017-11-29T19:05:59.533Z,5.20
2017-11-29T19:08:25.839Z,5.10
2017-11-29T19:10:52.139Z,5.20
2017-11-29T19:13:18.442Z,5.10
2017-11-29T19:15:44.828Z,5.10
2017-11-29T19:18:11.125Z,5.10
2017-11-29T19:20:37.459Z,5.10
2017-11-29T19:23:03.741Z,5.10
2017-11-29T19:25:30.132Z,5.20
2017-11-29T19:27:56.465Z,5.20
2017-11-29T19:30:23.491Z,5.10
2017-11-29T19:32:49.795Z,5.10
2017-11-29T19:35:16.092Z,5.10
2017-11-29T19:37:42.440Z,5.00
2017-11-29T19:40:08.688Z,5.00
2017-11-29T19:42:35.032Z,5.00
2017-11-29T19:45:01.376Z,5.00
2017-11-29T19:47:27.667Z,5.00
2017-11-29T19:49:54.001Z,5.00
2017-11-29T19:52:20.396Z,4.90
2017-11-29T19:54:47.051Z,4.80
2017-11-29T19:57:13.389Z,4.80
2017-11-29T19:59:39.671Z,4.70
2017-11-29T20:02:06.349Z,4.70
2017-11-29T20:04:32.721Z,4.70
2017-11-29T20:06:59.110Z,4.70
2017-11-29T20:09:25.415Z,4.60
2017-11-29T20:11:52.156Z,4.70
2017-11-29T20:14:18.468Z,4.70
2017-11-29T20:16:44.777Z,4.60
2017-11-29T20:19:11.016Z,4.60
2017-11-29T20:21:37.335Z,4.60
2017-11-29T20:24:03.654Z,4.60
2017-11-29T20:26:29.953Z,4.60
2017-11-29T20:28:56.276Z,4.70
2017-11-29T20:31:22.591Z,4.70
2017-11-29T20:33:48.894Z,4.70
2017-11-29T20:36:15.186Z,4.70
2017-11-29T20:38:41.461Z,4.70
2017-11-29T20:41:07.745Z,4.70
2017-11-29T20:43:34.042Z,4.70
2017-11-29T20:46:00.412Z,4.70
2017-11-29T20:48:26.646Z,4.70
2017-11-29T20:50:52.991Z,4.80
2017-11-29T20:53:19.253Z,4.90
2017-11-29T20:55:45.960Z,4.90
2017-11-29T20:58:12.256Z,4.80
2017-11-29T21:00:38.612Z,4.90
2017-11-29T21:03:04.940Z,4.80
2017-11-29T21:05:31.208Z,4.90
2017-11-29T21:07:57.845Z,4.90
2017-11-29T21:10:24.113Z,4.90
2017-11-29T21:12:50.445Z,4.90
2017-11-29T21:15:16.773Z,4.90
2017-11-29T21:17:43.151Z,5.00
2017-11-29T21:20:09.468Z,5.00
2017-11-29T21:22:35.837Z,4.90
2017-11-29T21:25:02.543Z,4.80
2017-11-29T21:27:28.906Z,4.80
2017-11-29T21:29:55.570Z,4.90
2017-11-29T21:32:21.921Z,4.90
2017-11-29T21:34:48.212Z,4.80
2017-11-29T21:37:14.836Z,4.80
2017-11-29T21:39:41.458Z,4.90
2017-11-29T21:42:08.110Z,4.80
2017-11-29T21:44:34.769Z,4.80
2017-11-29T21:47:01.022Z,4.80
2017-11-29T21:49:27.289Z,4.90
2017-11-29T21:51:53.911Z,4.80
2017-11-29T21:54:20.194Z,4.90
2017-11-29T21:56:46.506Z,4.90
2017-11-29T21:59:13.165Z,4.80
2017-11-29T22:01:39.755Z,4.80
2017-11-29T22:04:05.998Z,4.80
2017-11-29T22:06:32.648Z,4.70
2017-11-29T22:08:59.277Z,4.70
2017-11-29T22:11:25.934Z,4.70
2017-11-29T22:13:52.207Z,4.70
2017-11-29T22:16:18.466Z,4.60
2017-11-29T22:18:44.695Z,4.50
2017-11-29T22:21:11.764Z,4.50
2017-11-29T22:23:38.192Z,4.50
2017-11-29T22:26:04.933Z,4.50
2017-11-29T22:28:31.700Z,4.50
2017-11-29T22:30:58.069Z,4.40
2017-11-29T22:33:24.437Z,4.50
2017-11-29T22:35:51.225Z,4.50
2017-11-29T22:38:17.570Z,4.50
2017-11-29T22:40:43.963Z,4.50
2017-11-29T22:43:10.277Z,4.40
2017-11-29T22:45:36.548Z,4.30
2017-11-29T22:48:02.828Z,4.30
2017-11-29T22:50:29.427Z,4.40
2017-11-29T22:52:55.679Z,4.40
2017-11-29T22:55:22.373Z,4.20
2017-11-29T22:57:48.644Z,4.20
2017-11-29T23:00:26.498Z,4.20
2017-11-29T23:02:52.774Z,4.20
2017-11-29T23:05:19.035Z,4.10
2017-11-29T23:07:45.289Z,4.20
2017-11-29T23:10:11.547Z,4.20
2017-11-29T23:12:37.811Z,4.20
2017-11-29T23:15:04.431Z,4.40
2017-11-29T23:17:31.080Z,4.40
2017-11-29T23:19:57.683Z,4.40
2017-11-29T23:22:23.915Z,4.40
2017-11-29T23:24:50.184Z,4.40
2017-11-29T23:27:16.441Z,4.30
2017-11-29T23:29:42.754Z,4.20
2017-11-29T23:32:08.978Z,4.30
2017-11-29T23:34:35.342Z,4.30
2017-11-29T23:37:01.622Z,4.30
2017-11-29T23:39:27.871Z,4.20
2017-11-29T23:41:54.119Z,4.30
2017-11-29T23:44:20.395Z,4.40
2017-11-29T23:46:47.045Z,4.40
2017-11-29T23:49:13.687Z,4.30
2017-11-29T23:51:40.338Z,4.20
2017-11-29T23:54:06.581Z,4.20
2017-11-29T23:56:32.806Z,4.10
2017-11-29T23:58:59.033Z,4.20
